Terminal Aerodrome Forecast
Issued by NWS Boston, MA

Home | Current Version | Previous Version | Text Only | Print | Product List | Glossary On
Versions: 1 2 3 4 5 6 7 8 9 10 11 12 13 14 15 16 17 18 19 20 21 22 23 24 25 26 27 28 29 30 31 32 33 34 35 36 37 38 39 40 41 42 43 44 45 46 47 48
000
FTUS41 KBOX 291733
TAFPVD
TAF
KPVD 291733Z 2918/3018 25010G19KT P6SM SCT040 BKN250
     FM300000 30010KT P6SM SCT070
     FM300600 34008KT P6SM SCT090
     FM301000 01007KT P6SM SCT200
     FM301400 06007KT P6SM SCT200
     FM301700 13008KT P6SM SCT150=

USA.gov is the U.S. government's official web portal to all federal, state and local government web resources and services.